createdAt,value
2022-12-03T00:00:22.412Z,1011.2
2022-12-03T00:01:24.172Z,1011.2
2022-12-03T00:02:26.235Z,1011.2
2022-12-03T00:03:28.313Z,1011.2
2022-12-03T00:04:30.123Z,1011.2
2022-12-03T00:05:32.053Z,1011.2
2022-12-03T00:06:34.792Z,1011.2
2022-12-03T00:07:35.105Z,1011.2
2022-12-03T00:08:36.072Z,1011.1
2022-12-03T00:09:37.055Z,1011.2
2022-12-03T00:10:38.052Z,1011.1
2022-12-03T00:11:39.012Z,1011.2
2022-12-03T00:12:40.093Z,1011.1
2022-12-03T00:13:41.092Z,1011.1
2022-12-03T00:14:44.931Z,1011.2
2022-12-03T00:15:45.174Z,1011.2
2022-12-03T00:16:47.052Z,1010.8
2022-12-03T00:17:48.086Z,1011.1
2022-12-03T00:18:50.113Z,1011.1
2022-12-03T00:19:52.152Z,1011.1
2022-12-03T00:20:54.152Z,1011.2
2022-12-03T00:21:56.116Z,1011.2
2022-12-03T00:22:58.135Z,1011.1
2022-12-03T00:24:00.071Z,1011.2
2022-12-03T00:25:01.192Z,1011.2
2022-12-03T00:26:03.054Z,1011.1
2022-12-03T00:27:04.099Z,1011.2
2022-12-03T00:28:05.096Z,1011.2
2022-12-03T00:29:06.092Z,1011.1
2022-12-03T00:30:07.185Z,1011.2
2022-12-03T00:31:09.201Z,1011.2
2022-12-03T00:32:11.113Z,1011.1
2022-12-03T00:33:13.353Z,1011.1
2022-12-03T00:34:15.161Z,1011.2
2022-12-03T00:35:17.094Z,1011.1
2022-12-03T00:36:19.172Z,1011.1
2022-12-03T00:37:21.312Z,1011.1
2022-12-03T00:38:23.175Z,1011
2022-12-03T00:39:25.102Z,1011.1
2022-12-03T00:40:26.081Z,1011.1
2022-12-03T00:41:27.153Z,1011.1
2022-12-03T00:42:29.145Z,1011.1
2022-12-03T00:43:31.088Z,1011.1
2022-12-03T00:44:32.112Z,1011.1
2022-12-03T00:45:34.238Z,1011.1
2022-12-03T00:46:36.450Z,1011.1
2022-12-03T00:47:38.132Z,1011
2022-12-03T00:48:40.133Z,1011.1
2022-12-03T00:49:41.445Z,1011.1
2022-12-03T00:50:43.133Z,1011
2022-12-03T00:51:44.057Z,1011
2022-12-03T00:52:45.153Z,1011
2022-12-03T00:53:47.060Z,1011
2022-12-03T00:54:49.165Z,1011
2022-12-03T00:55:51.093Z,1011
2022-12-03T00:56:53.380Z,1011
2022-12-03T00:57:55.135Z,1011
2022-12-03T00:58:57.183Z,1011
2022-12-03T00:59:59.092Z,1011
2022-12-03T01:01:00.098Z,1011
2022-12-03T01:02:01.216Z,1011
2022-12-03T01:03:03.063Z,1011
2022-12-03T01:04:04.052Z,1011
2022-12-03T01:05:05.284Z,1011
2022-12-03T01:06:07.314Z,1011
2022-12-03T01:07:09.147Z,1011
2022-12-03T01:08:10.378Z,1011
2022-12-03T01:09:12.152Z,1011
2022-12-03T01:10:14.122Z,1011
2022-12-03T01:11:16.103Z,1011
2022-12-03T01:12:17.133Z,1010.9
2022-12-03T01:13:18.129Z,1011
2022-12-03T01:14:20.162Z,1010.9
2022-12-03T01:15:22.281Z,1010.9
2022-12-03T01:16:24.319Z,1010.9
2022-12-03T01:17:26.154Z,1010.9
2022-12-03T01:18:28.224Z,1010.9
2022-12-03T01:19:30.133Z,1010.2
2022-12-03T01:20:32.233Z,1010.7
2022-12-03T01:21:34.295Z,1010.9
2022-12-03T01:22:36.095Z,1011
2022-12-03T01:23:37.096Z,1010.9
2022-12-03T01:24:38.192Z,1011
2022-12-03T01:25:40.139Z,1011.1
2022-12-03T01:26:42.152Z,1011
2022-12-03T01:27:44.081Z,1011.1
2022-12-03T01:28:45.154Z,1011.1
2022-12-03T01:29:47.134Z,1011.1
2022-12-03T01:30:49.566Z,1011
2022-12-03T01:31:51.557Z,1011.1
2022-12-03T01:32:53.553Z,1011
2022-12-03T01:33:55.164Z,1011.1
2022-12-03T01:34:57.470Z,1011
2022-12-03T01:35:59.646Z,1011
2022-12-03T01:37:01.393Z,1011
2022-12-03T01:38:03.412Z,1011
2022-12-03T01:39:05.412Z,1011
2022-12-03T01:40:07.135Z,1010.9
2022-12-03T01:41:11.628Z,1010.9
2022-12-03T01:42:10.055Z,1011
2022-12-03T01:43:11.099Z,1010.9
2022-12-03T01:44:12.094Z,1010.9
2022-12-03T01:45:13.221Z,1010.9
2022-12-03T01:46:15.619Z,1010.9
2022-12-03T01:47:17.070Z,1010.9
2022-12-03T01:48:18.111Z,1010.9
2022-12-03T01:49:20.195Z,1010.9
2022-12-03T01:50:22.145Z,1011
2022-12-03T01:51:24.204Z,1010.9
2022-12-03T01:52:26.194Z,1010.9
2022-12-03T01:53:28.232Z,1010.9
2022-12-03T01:54:30.208Z,1010.9
2022-12-03T01:55:32.153Z,1010.8
2022-12-03T01:56:34.132Z,1010.8
2022-12-03T01:57:36.140Z,1010.8
2022-12-03T01:58:38.094Z,1010.8
2022-12-03T01:59:39.112Z,1010.8
2022-12-03T02:00:40.355Z,1010.8
2022-12-03T02:01:42.289Z,1010.8
2022-12-03T02:02:44.155Z,1010.8
2022-12-03T02:06:55.057Z,1010.9
2022-12-03T02:07:56.199Z,1010.9
2022-12-03T02:08:58.136Z,1010.8
2022-12-03T02:09:59.153Z,1010.9
2022-12-03T02:11:01.275Z,1010.8
2022-12-03T02:12:03.155Z,1010.8
2022-12-03T02:13:05.452Z,1010.9
2022-12-03T02:14:07.110Z,1010.9
2022-12-03T02:15:09.093Z,1010.8
2022-12-03T02:16:10.253Z,1010.8
2022-12-03T02:17:12.222Z,1010.8
2022-12-03T02:18:14.668Z,1010.8
2022-12-03T02:19:16.119Z,1010.8
2022-12-03T02:20:17.154Z,1010.8
2022-12-03T02:21:18.120Z,1010.8
2022-12-03T02:22:19.132Z,1010.8
2022-12-03T02:23:21.193Z,1010.8
2022-12-03T02:24:23.153Z,1010.8
2022-12-03T02:25:25.161Z,1010.8
2022-12-03T02:26:26.074Z,1010.8
2022-12-03T02:27:27.172Z,1010.8
2022-12-03T02:28:28.133Z,1010.8
2022-12-03T02:29:30.201Z,1010.6
2022-12-03T02:30:32.321Z,1010.8
2022-12-03T02:31:34.230Z,1010.8
2022-12-03T02:32:36.135Z,1010.8
2022-12-03T02:33:37.187Z,1010.8
2022-12-03T02:34:38.132Z,1010.8
2022-12-03T02:35:40.192Z,1010.8
2022-12-03T02:36:42.131Z,1010.8
2022-12-03T02:37:43.153Z,1010.8
2022-12-03T02:38:45.153Z,1010.8
2022-12-03T02:39:46.173Z,1010.8
2022-12-03T02:40:48.133Z,1010.8
2022-12-03T02:41:49.213Z,1010.8
2022-12-03T02:42:51.194Z,1010.7
2022-12-03T02:43:53.195Z,1010.7
2022-12-03T02:44:56.677Z,1010.7
2022-12-03T02:45:57.173Z,1010.8
2022-12-03T02:46:58.190Z,1010.7
2022-12-03T02:48:00.135Z,1010.8
2022-12-03T02:49:01.217Z,1010.9
2022-12-03T02:50:03.252Z,1010.8
2022-12-03T02:51:05.732Z,1010.8
2022-12-03T02:52:07.157Z,1010.8
2022-12-03T02:53:09.192Z,1010.8
2022-12-03T02:54:11.136Z,1010.8
2022-12-03T02:55:12.188Z,1010
2022-12-03T02:56:13.212Z,1010.5
2022-12-03T02:57:15.132Z,1010.7
2022-12-03T02:58:16.194Z,1010.8
2022-12-03T02:59:17.152Z,1010.7
2022-12-03T03:00:18.132Z,1010.8
2022-12-03T03:01:19.307Z,1010
2022-12-03T03:02:21.334Z,1010.6
2022-12-03T03:03:23.131Z,1010.7
2022-12-03T03:04:24.220Z,1010.7
2022-12-03T03:05:26.125Z,1010.7
2022-12-03T03:06:28.193Z,1010.7
2022-12-03T03:07:30.267Z,1010.8
2022-12-03T03:08:32.213Z,1010.8
2022-12-03T03:09:34.272Z,1010.8
2022-12-03T03:10:36.233Z,1010.7
2022-12-03T03:11:38.252Z,1010.8
2022-12-03T03:12:40.233Z,1010.7
2022-12-03T03:13:42.076Z,1010.8
2022-12-03T03:14:43.233Z,1010.7
2022-12-03T03:15:45.152Z,1010.7
2022-12-03T03:16:46.167Z,1010.7
2022-12-03T03:17:48.200Z,1010.7
2022-12-03T03:18:49.173Z,1010.7
2022-12-03T03:19:50.618Z,1010.7
2022-12-03T03:20:52.213Z,1010.6
2022-12-03T03:21:54.150Z,1010.7
2022-12-03T03:22:56.148Z,1010.7
2022-12-03T03:23:58.133Z,1010.7
2022-12-03T03:24:59.201Z,1010.7
2022-12-03T03:26:01.192Z,1010.7
2022-12-03T03:27:03.233Z,1010.7
2022-12-03T03:28:05.194Z,1010.7
2022-12-03T03:29:07.153Z,1010.7
2022-12-03T03:30:09.173Z,1010.6
2022-12-03T03:31:10.515Z,1010.5
2022-12-03T03:32:12.224Z,1010.6
2022-12-03T03:33:14.192Z,1010.6
2022-12-03T03:34:16.155Z,1010.6
2022-12-03T03:35:17.227Z,1010.6
2022-12-03T03:36:19.215Z,1010.5
2022-12-03T03:37:21.191Z,1010.6
2022-12-03T03:38:23.280Z,1010.6
2022-12-03T03:39:25.173Z,1010.6
2022-12-03T03:40:27.176Z,1010.5
2022-12-03T03:41:29.238Z,1010.5
2022-12-03T03:42:31.372Z,1010.4
2022-12-03T03:43:33.374Z,1010.5
2022-12-03T03:44:35.585Z,1010.4
2022-12-03T03:45:37.216Z,1010.5
2022-12-03T03:46:39.254Z,1010.5
2022-12-03T03:47:41.619Z,1010.4
2022-12-03T03:48:43.194Z,1010.5
2022-12-03T03:49:44.205Z,1010.5
2022-12-03T03:50:46.217Z,1010.5
2022-12-03T03:51:47.173Z,1010.5
2022-12-03T03:52:48.280Z,1010.5
2022-12-03T03:53:50.214Z,1010.5
2022-12-03T03:54:52.660Z,1010.5
2022-12-03T03:55:54.136Z,1010.5
2022-12-03T03:56:55.192Z,1010.4
2022-12-03T03:57:56.173Z,1010.4
2022-12-03T03:58:57.172Z,1010.4
2022-12-03T03:59:58.214Z,1010.4
2022-12-03T04:00:59.334Z,1010
2022-12-03T04:02:01.302Z,1010.2
2022-12-03T04:03:03.241Z,1010.3
2022-12-03T04:04:04.319Z,1010.2
2022-12-03T04:05:06.213Z,1010.3
2022-12-03T04:06:08.235Z,1010.3
2022-12-03T04:07:10.154Z,1010.3
2022-12-03T04:08:11.328Z,1010.3
2022-12-03T04:09:13.212Z,1010.3
2022-12-03T04:10:15.194Z,1010.2
2022-12-03T04:11:16.232Z,1010.2
2022-12-03T04:12:18.193Z,1010.3
2022-12-03T04:13:19.315Z,1010.3
2022-12-03T04:14:21.213Z,1010.2
2022-12-03T04:15:23.312Z,1010.3
2022-12-03T04:16:25.262Z,1009.9
2022-12-03T04:17:27.180Z,1010.2
2022-12-03T04:18:28.172Z,1010.3
2022-12-03T04:19:29.233Z,1010.2
2022-12-03T04:20:31.152Z,1010.2
2022-12-03T04:21:33.181Z,1010.3
2022-12-03T04:22:34.114Z,1010.2
2022-12-03T04:23:36.266Z,1010.3
2022-12-03T04:24:38.136Z,1010.3
2022-12-03T04:25:39.153Z,1010.3
2022-12-03T04:26:40.172Z,1010.3
2022-12-03T04:27:41.193Z,1010.3
2022-12-03T04:28:42.202Z,1010.3
2022-12-03T04:29:43.153Z,1009.5
2022-12-03T04:30:44.234Z,1010.1
2022-12-03T04:31:46.161Z,1010.2
2022-12-03T04:32:47.193Z,1010.3
2022-12-03T04:33:48.213Z,1010.3
2022-12-03T04:34:49.173Z,1010.3
2022-12-03T04:35:50.264Z,1010.3
2022-12-03T04:36:52.262Z,1010.2
2022-12-03T04:37:54.111Z,1010.3
2022-12-03T04:38:55.252Z,1010.3
2022-12-03T04:39:56.123Z,1010.3
2022-12-03T04:40:57.192Z,1010.3
2022-12-03T04:41:58.200Z,1010.3
2022-12-03T04:43:00.261Z,1010.3
2022-12-03T04:44:02.213Z,1010.3
2022-12-03T04:45:03.292Z,1010.3
2022-12-03T04:46:05.324Z,1010.3
2022-12-03T04:47:07.253Z,1010.3
2022-12-03T04:48:09.473Z,1010.4
2022-12-03T04:49:11.233Z,1010.4
2022-12-03T04:50:13.229Z,1010.4
2022-12-03T04:51:14.181Z,1010.3
2022-12-03T04:52:15.259Z,1010.3
2022-12-03T04:53:16.213Z,1010.4
2022-12-03T04:54:17.232Z,1010.3
2022-12-03T04:55:18.193Z,1010.3
2022-12-03T04:56:19.217Z,1010.3
2022-12-03T04:57:20.136Z,1010.3
2022-12-03T04:58:21.153Z,1010.4
2022-12-03T04:59:22.175Z,1010.3
2022-12-03T05:00:23.152Z,1010.3
2022-12-03T05:01:24.299Z,1010.3
2022-12-03T05:02:26.312Z,1010.3
2022-12-03T05:03:28.153Z,1010.3
2022-12-03T05:04:29.192Z,1010.3
2022-12-03T05:05:30.175Z,1010.4
2022-12-03T05:06:31.309Z,1010.3
2022-12-03T05:07:33.299Z,1010.3
2022-12-03T05:08:34.174Z,1010.4
2022-12-03T05:09:36.192Z,1010.3
2022-12-03T05:10:38.280Z,1010.3
2022-12-03T05:11:40.208Z,1010.4
2022-12-03T05:12:42.192Z,1010.3
2022-12-03T05:13:43.364Z,1010.3
2022-12-03T05:14:44.212Z,1010.3
2022-12-03T05:15:45.452Z,1010.3
2022-12-03T05:16:47.232Z,1010.3
2022-12-03T05:17:49.134Z,1010.3
2022-12-03T05:18:50.215Z,1010.3
2022-12-03T05:19:52.234Z,1010.3
2022-12-03T05:20:54.201Z,1010.3
2022-12-03T05:21:56.212Z,1010.3
2022-12-03T05:22:57.918Z,1010.3
2022-12-03T05:23:59.177Z,1010.3
2022-12-03T05:25:00.156Z,1010.3
2022-12-03T05:26:01.272Z,1010.3
2022-12-03T05:27:02.193Z,1010.3
2022-12-03T05:28:03.141Z,1010.3
2022-12-03T05:29:04.151Z,1010.3
2022-12-03T05:30:05.332Z,1010.3
2022-12-03T05:31:07.252Z,1010.3
2022-12-03T05:32:08.152Z,1010.3
2022-12-03T05:33:09.135Z,1010.3
2022-12-03T05:34:10.170Z,1010.3
2022-12-03T05:35:11.260Z,1010.3
2022-12-03T05:36:13.174Z,1010.3
2022-12-03T05:37:14.392Z,1010.2
2022-12-03T05:38:16.216Z,1009.2
2022-12-03T05:39:17.473Z,1010
2022-12-03T05:40:19.500Z,1010.2
2022-12-03T05:41:21.292Z,1010.2
2022-12-03T05:42:23.273Z,1010.3
2022-12-03T05:43:25.232Z,1010.2
2022-12-03T05:44:27.432Z,1010.2
2022-12-03T05:45:29.257Z,1010.3
2022-12-03T05:46:31.224Z,1010.2
2022-12-03T05:47:32.293Z,1010.2
2022-12-03T05:48:34.479Z,1010
2022-12-03T05:49:36.213Z,1010.2
2022-12-03T05:50:37.212Z,1010.3
2022-12-03T05:51:38.232Z,1010.2
2022-12-03T05:52:40.151Z,1010.3
2022-12-03T05:53:41.516Z,1010.3
2022-12-03T05:54:43.495Z,1010.2
2022-12-03T05:55:45.532Z,1010.2
2022-12-03T05:56:47.252Z,1010.2
2022-12-03T05:57:48.201Z,1010.2
2022-12-03T05:58:49.166Z,1010.2
2022-12-03T05:59:50.211Z,1010.3
2022-12-03T06:00:52.207Z,1010.3
2022-12-03T06:01:54.273Z,1010.3
2022-12-03T06:02:56.547Z,1010.2
2022-12-03T06:03:58.248Z,1010.2
2022-12-03T06:05:00.212Z,1010.2
2022-12-03T06:06:01.234Z,1010.2
2022-12-03T06:07:02.598Z,1010.2
2022-12-03T06:08:04.803Z,1010.2
2022-12-03T06:09:06.758Z,1010.2
2022-12-03T06:10:08.232Z,1010.2
2022-12-03T06:11:09.212Z,1010.2
2022-12-03T06:12:10.232Z,1010.2
2022-12-03T06:13:11.292Z,1010.2
2022-12-03T06:14:13.271Z,1010.2
2022-12-03T06:15:15.218Z,1010.3
2022-12-03T06:16:16.565Z,1010.2
2022-12-03T06:17:18.174Z,1010.2
2022-12-03T06:18:19.192Z,1010.2
2022-12-03T06:19:20.252Z,1010.3
2022-12-03T06:20:22.195Z,1010.2
2022-12-03T06:21:23.372Z,1010.3
2022-12-03T06:22:25.313Z,1010.3
2022-12-03T06:23:27.252Z,1010.3
2022-12-03T06:24:29.281Z,1010.3
2022-12-03T06:25:31.454Z,1010.3
2022-12-03T06:26:33.198Z,1010.3
2022-12-03T06:27:34.152Z,1010.3
2022-12-03T06:28:35.216Z,1010.3
2022-12-03T06:29:37.291Z,1010.3
2022-12-03T06:30:39.332Z,1010.2
2022-12-03T06:31:42.137Z,1009.4
2022-12-03T06:32:44.440Z,1010
2022-12-03T06:33:46.533Z,1010.2
2022-12-03T06:34:48.524Z,1010.2
2022-12-03T06:35:50.272Z,1009.9
2022-12-03T06:36:52.703Z,1010.2
2022-12-03T06:37:54.376Z,1010.2
2022-12-03T06:38:56.272Z,1010.3
2022-12-03T06:39:58.300Z,1010.3
2022-12-03T06:41:00.213Z,1010.5
2022-12-03T06:42:01.572Z,1010.4
2022-12-03T06:43:03.492Z,1010.3
2022-12-03T06:44:05.271Z,1010.3
2022-12-03T06:45:07.375Z,1010.3
2022-12-03T06:46:09.347Z,1010.3
2022-12-03T06:47:11.280Z,1010.2
2022-12-03T06:48:13.302Z,1010.3
2022-12-03T06:49:15.253Z,1010.3
2022-12-03T06:50:16.214Z,1010.2
2022-12-03T06:51:18.387Z,1010.3
2022-12-03T06:52:20.200Z,1010.2
2022-12-03T06:53:22.281Z,1010.2
2022-12-03T06:54:23.312Z,1010.3
2022-12-03T06:55:25.495Z,1010.3
2022-12-03T06:56:32.893Z,1010.3
2022-12-03T06:57:29.214Z,1010.3
2022-12-03T06:58:31.313Z,1010.3
2022-12-03T06:59:33.433Z,1010.3
2022-12-03T07:00:35.425Z,1010.3
2022-12-03T07:01:37.336Z,1010.2
2022-12-03T07:02:39.493Z,1010.3
2022-12-03T07:03:41.312Z,1010.3
2022-12-03T07:04:46.360Z,1010.3
2022-12-03T07:05:45.711Z,1010.3
2022-12-03T07:06:47.964Z,1010.2
2022-12-03T07:07:49.235Z,1010.3
2022-12-03T07:08:50.243Z,1010.2
2022-12-03T07:09:51.418Z,1010.2
2022-12-03T07:10:53.340Z,1010.3
2022-12-03T07:11:55.752Z,1010.3
2022-12-03T07:12:57.241Z,1010.2
2022-12-03T07:14:03.171Z,1010.2
2022-12-03T07:14:59.334Z,1010.2
2022-12-03T07:16:01.309Z,1010.2
2022-12-03T07:17:02.233Z,1010.3
2022-12-03T07:18:03.253Z,1010.2
2022-12-03T07:19:04.536Z,1010.2
2022-12-03T07:20:06.374Z,1010.2
2022-12-03T07:21:08.314Z,1010.2
2022-12-03T07:22:10.342Z,1010.2
2022-12-03T07:23:11.331Z,1010.1
2022-12-03T07:24:13.513Z,1010.2
2022-12-03T07:25:19.632Z,1010.1
2022-12-03T07:26:17.718Z,1010.1
2022-12-03T07:27:19.373Z,1010.1
2022-12-03T07:28:21.254Z,1010.2
2022-12-03T07:29:23.627Z,1010.2
2022-12-03T07:30:25.695Z,1010.1
2022-12-03T07:31:27.361Z,1010.1
2022-12-03T07:32:29.371Z,1010.1
2022-12-03T07:33:31.293Z,1010.2
2022-12-03T07:34:33.247Z,1010.2
2022-12-03T07:35:35.348Z,1009.9
2022-12-03T07:36:37.304Z,1010.1
2022-12-03T07:37:39.413Z,1010.1
2022-12-03T07:38:41.375Z,1010.1
2022-12-03T07:39:43.556Z,1010.2
2022-12-03T07:40:45.397Z,1010.1
2022-12-03T07:41:47.435Z,1010.2
2022-12-03T07:42:49.412Z,1010.2
2022-12-03T07:43:51.260Z,1010.2
2022-12-03T07:44:53.844Z,1010.1
2022-12-03T07:45:55.280Z,1010.2
2022-12-03T07:46:56.359Z,1010.2
2022-12-03T07:47:58.675Z,1010.2
2022-12-03T07:49:00.372Z,1010.2
2022-12-03T07:50:02.393Z,1010.1
2022-12-03T07:51:04.832Z,1010.2
2022-12-03T07:52:06.374Z,1010.2
2022-12-03T07:53:08.733Z,1010.2
2022-12-03T07:54:10.715Z,1010.2
2022-12-03T07:55:12.453Z,1010.1
2022-12-03T07:56:14.253Z,1010.1
2022-12-03T07:57:15.357Z,1010.1
2022-12-03T07:58:17.840Z,1010.1
2022-12-03T07:59:19.414Z,1010.1
2022-12-03T08:00:21.453Z,1010.1
2022-12-03T08:01:23.513Z,1010.2
2022-12-03T08:02:25.324Z,1010.1
2022-12-03T08:03:27.512Z,1010.1
2022-12-03T08:04:29.519Z,1010.1
2022-12-03T08:05:31.316Z,1010.1
2022-12-03T08:06:33.380Z,1010
2022-12-03T08:07:35.350Z,1010.1
2022-12-03T08:08:37.373Z,1009.9
2022-12-03T08:09:39.373Z,1010
2022-12-03T08:10:41.313Z,1010
2022-12-03T08:11:42.292Z,1010
2022-12-03T08:12:43.616Z,1010
2022-12-03T08:13:45.495Z,1010
2022-12-03T08:14:47.332Z,1010
2022-12-03T08:15:48.732Z,1010
2022-12-03T08:16:51.273Z,1010
2022-12-03T08:17:53.852Z,1010.1
2022-12-03T08:18:55.414Z,1010
2022-12-03T08:19:57.815Z,1010
2022-12-03T08:20:59.452Z,1010.1
2022-12-03T08:22:01.803Z,1010
2022-12-03T08:23:03.585Z,1010
2022-12-03T08:24:05.750Z,1010
2022-12-03T08:25:07.703Z,1010
2022-12-03T08:26:09.279Z,1010
2022-12-03T08:27:10.393Z,1010
2022-12-03T08:28:12.398Z,1010
2022-12-03T08:29:14.794Z,1010
2022-12-03T08:30:16.480Z,1010
2022-12-03T08:31:18.584Z,1009.9
2022-12-03T08:32:20.389Z,1009.9
2022-12-03T08:33:22.407Z,1010
2022-12-03T08:34:24.703Z,1009.9
2022-12-03T08:35:26.337Z,1009.9
2022-12-03T08:36:28.814Z,1009.8
2022-12-03T08:37:30.569Z,1010
2022-12-03T08:38:32.354Z,1009.9
2022-12-03T08:39:34.472Z,1009.8
2022-12-03T08:40:37.380Z,1009.8
2022-12-03T08:41:39.540Z,1009.8
2022-12-03T08:42:41.870Z,1009.8
2022-12-03T08:43:43.431Z,1009.7
2022-12-03T08:44:45.336Z,1009.8
2022-12-03T08:45:47.292Z,1009.8
2022-12-03T08:46:48.574Z,1009.7
2022-12-03T08:47:50.533Z,1009.7
2022-12-03T08:48:52.814Z,1008.6
2022-12-03T08:49:54.445Z,1009.4
2022-12-03T08:50:56.631Z,1009.7
2022-12-03T08:51:59.114Z,1009.8
2022-12-03T08:53:00.353Z,1009.8
2022-12-03T08:54:02.578Z,1009.8
2022-12-03T08:55:04.473Z,1009.9
2022-12-03T08:56:06.992Z,1009.8
2022-12-03T08:57:08.295Z,1009.8
2022-12-03T08:58:10.354Z,1009.8
2022-12-03T08:59:12.379Z,1009.9
2022-12-03T09:00:14.394Z,1009.9
2022-12-03T09:01:16.934Z,1009.8
2022-12-03T09:02:19.073Z,1009.8
2022-12-03T09:03:20.256Z,1009.9
2022-12-03T09:04:21.487Z,1009.9
2022-12-03T09:05:23.366Z,1009.8
2022-12-03T09:06:25.415Z,1009.8
2022-12-03T09:07:27.361Z,1009.8
2022-12-03T09:08:29.792Z,1009.5
2022-12-03T09:09:32.453Z,1009.8
2022-12-03T09:10:34.576Z,1009.8
2022-12-03T09:11:36.434Z,1009.8
2022-12-03T09:12:38.455Z,1009.9
2022-12-03T09:13:40.395Z,1009.9
2022-12-03T09:14:42.927Z,1010
2022-12-03T09:15:44.593Z,1009.9
2022-12-03T09:16:46.633Z,1009.8
2022-12-03T09:17:48.753Z,1009.8
2022-12-03T09:18:50.693Z,1009.8
2022-12-03T09:19:52.433Z,1009.8
2022-12-03T09:20:54.341Z,1009.8
2022-12-03T09:21:56.474Z,1009.8
2022-12-03T09:22:58.472Z,1009.8
2022-12-03T09:24:00.354Z,1009.8
2022-12-03T09:25:01.741Z,1009.8
2022-12-03T09:26:03.439Z,1009.1
2022-12-03T09:27:05.433Z,1009.6
2022-12-03T09:28:07.314Z,1009.7
2022-12-03T09:29:12.268Z,1009.8
2022-12-03T09:30:11.705Z,1009.8
2022-12-03T09:31:13.534Z,1009.8
2022-12-03T09:32:18.449Z,1009.7
2022-12-03T09:33:17.308Z,1009.8
2022-12-03T09:34:19.315Z,1009.8
2022-12-03T09:35:21.273Z,1009.8
2022-12-03T09:36:23.371Z,1010
2022-12-03T09:37:25.434Z,1009.8
2022-12-03T09:38:27.711Z,1009.7
2022-12-03T09:39:29.418Z,1009.8
2022-12-03T09:40:32.413Z,1009.7
2022-12-03T09:41:34.396Z,1009.8
2022-12-03T09:42:36.343Z,1009.8
2022-12-03T09:44:04.264Z,1009.8
2022-12-03T09:44:40.391Z,1009.7
2022-12-03T09:45:42.627Z,1009.7
2022-12-03T09:46:44.821Z,1009.7
2022-12-03T09:47:46.809Z,1009.8
2022-12-03T09:48:48.617Z,1009.8
2022-12-03T09:49:51.253Z,1009.7
2022-12-03T09:50:52.454Z,1009.8
2022-12-03T09:51:54.361Z,1009.8
2022-12-03T09:52:56.612Z,1009.8
2022-12-03T09:53:59.014Z,1009.7
2022-12-03T09:55:00.835Z,1009.7
2022-12-03T09:56:02.484Z,1009.8
2022-12-03T09:57:04.383Z,1009.8
2022-12-03T09:58:05.402Z,1009.8
2022-12-03T09:59:06.520Z,1009.8
2022-12-03T10:00:08.874Z,1009.8
2022-12-03T10:01:10.436Z,1009.8
2022-12-03T10:02:12.343Z,1009.7
2022-12-03T10:03:14.473Z,1009.8
2022-12-03T10:04:16.656Z,1009.8
2022-12-03T10:05:18.460Z,1009.7
2022-12-03T10:06:20.343Z,1009.8
2022-12-03T10:07:22.332Z,1009.8
2022-12-03T10:08:26.980Z,1009.7
2022-12-03T10:09:26.915Z,1009.8
2022-12-03T10:10:28.822Z,1009.8
2022-12-03T10:11:30.367Z,1009.8
2022-12-03T10:12:32.274Z,1009.7
2022-12-03T10:13:33.881Z,1009.8
2022-12-03T10:14:35.352Z,1009.7
2022-12-03T10:15:36.341Z,1009.7
2022-12-03T10:16:37.404Z,1009.6
2022-12-03T10:17:38.913Z,1009.7
2022-12-03T10:18:41.799Z,1009.6
2022-12-03T10:19:41.593Z,1009.7
2022-12-03T10:20:43.513Z,1009.7
2022-12-03T10:21:45.354Z,1009.7
2022-12-03T10:22:47.355Z,1009.7
2022-12-03T10:23:53.750Z,1009.7
2022-12-03T10:24:50.484Z,1009.7
2022-12-03T10:25:52.912Z,1009.7
2022-12-03T10:26:54.333Z,1009.6
2022-12-03T10:27:56.513Z,1009
2022-12-03T10:28:58.475Z,1009.5
2022-12-03T10:30:00.393Z,1008.9
2022-12-03T10:31:02.480Z,1009.4
2022-12-03T10:32:04.676Z,1009.6
2022-12-03T10:33:06.841Z,1009.6
2022-12-03T10:34:08.334Z,1009.7
2022-12-03T10:35:09.692Z,1009.6
2022-12-03T10:36:11.455Z,1009.6
2022-12-03T10:37:13.601Z,1009.6
2022-12-03T10:38:15.734Z,1009.6
2022-12-03T10:39:17.358Z,1009.6
2022-12-03T10:40:19.326Z,1009.5
2022-12-03T10:41:20.333Z,1009.5
2022-12-03T10:42:21.434Z,1009.5
2022-12-03T10:43:23.413Z,1009.5
2022-12-03T10:44:25.476Z,1009.4
2022-12-03T10:45:27.374Z,1009.4
2022-12-03T10:46:29.560Z,1009.4
2022-12-03T10:47:31.583Z,1009.4
2022-12-03T10:48:33.725Z,1009.4
2022-12-03T10:49:35.419Z,1009.4
2022-12-03T10:50:37.510Z,1009.4
2022-12-03T10:51:39.432Z,1009.4
2022-12-03T10:52:42.233Z,1009.3
2022-12-03T10:53:43.435Z,1009.3
2022-12-03T10:54:45.296Z,1009.3
2022-12-03T10:55:46.333Z,1009.3
2022-12-03T10:56:47.334Z,1009.3
2022-12-03T10:57:48.388Z,1009.3
2022-12-03T10:58:49.873Z,1009.3
2022-12-03T10:59:51.341Z,1009.3
2022-12-03T11:00:52.710Z,1009.4
2022-12-03T11:01:55.090Z,1009.3
2022-12-03T11:02:57.314Z,1009.3
2022-12-03T11:03:58.509Z,1009.2
2022-12-03T11:05:00.396Z,1009.3
2022-12-03T11:06:01.894Z,1008.9
2022-12-03T11:07:03.713Z,1009.1
2022-12-03T11:08:05.462Z,1009.1
2022-12-03T11:09:08.917Z,1009.2
2022-12-03T11:10:08.382Z,1009.2
2022-12-03T11:11:09.952Z,1009.2
2022-12-03T11:12:11.454Z,1009.3
2022-12-03T11:13:13.464Z,1009.2
2022-12-03T11:14:19.722Z,1009.2
2022-12-03T11:15:17.735Z,1009.2
2022-12-03T11:16:19.517Z,1009.1
2022-12-03T11:17:21.321Z,1009.2
2022-12-03T11:18:22.397Z,1009.3
2022-12-03T11:19:24.392Z,1009.2
2022-12-03T11:20:26.735Z,1009.2
2022-12-03T11:21:28.379Z,1009.2
2022-12-03T11:22:30.493Z,1009.2
2022-12-03T11:23:32.553Z,1009.2
2022-12-03T11:24:34.369Z,1009.2
2022-12-03T11:25:36.601Z,1009.1
2022-12-03T11:26:39.612Z,1009.2
2022-12-03T11:27:41.511Z,1009.1
2022-12-03T11:28:43.360Z,1009.1
2022-12-03T11:29:44.372Z,1009.1
2022-12-03T11:30:46.428Z,1009.1
2022-12-03T11:31:48.837Z,1009.1
2022-12-03T11:32:50.773Z,1009.1
2022-12-03T11:33:52.716Z,1009.2
2022-12-03T11:34:54.623Z,1009.1
2022-12-03T11:35:57.614Z,1009
2022-12-03T11:37:01.701Z,1009.1
2022-12-03T11:38:01.643Z,1009
2022-12-03T11:39:03.356Z,1009
2022-12-03T11:40:04.439Z,1009.1
2022-12-03T11:41:06.757Z,1009.1
2022-12-03T11:42:08.613Z,1009.1
2022-12-03T11:43:10.857Z,1009.1
2022-12-03T11:44:13.396Z,1009.1
2022-12-03T11:45:14.396Z,1009.1
2022-12-03T11:46:15.558Z,1009
2022-12-03T11:47:17.394Z,1009
2022-12-03T11:48:19.354Z,1009
2022-12-03T11:49:20.438Z,1009.1
2022-12-03T11:50:22.353Z,1009.1
2022-12-03T11:51:23.933Z,1009
2022-12-03T11:52:25.498Z,1009
2022-12-03T11:53:28.053Z,1009
2022-12-03T11:54:29.555Z,1009
2022-12-03T11:55:31.473Z,1009
2022-12-03T11:56:33.852Z,1009
2022-12-03T11:57:35.471Z,1009
2022-12-03T11:58:37.476Z,1009
2022-12-03T11:59:39.373Z,1008.9
2022-12-03T12:00:41.792Z,1009
2022-12-03T12:01:43.537Z,1008.9
2022-12-03T12:02:45.552Z,1009
2022-12-03T12:03:47.598Z,1009
2022-12-03T12:04:49.519Z,1008.9
2022-12-03T12:05:51.693Z,1008.9
2022-12-03T12:06:53.727Z,1008.9
2022-12-03T12:07:55.448Z,1008.9
2022-12-03T12:08:57.538Z,1009
2022-12-03T12:09:59.954Z,1009
2022-12-03T12:11:02.373Z,1009
2022-12-03T12:12:04.372Z,1008.9
2022-12-03T12:13:05.383Z,1009
2022-12-03T12:14:06.397Z,1009
2022-12-03T12:15:07.853Z,1009
2022-12-03T12:16:09.886Z,1009
2022-12-03T12:17:11.552Z,1009.1
2022-12-03T12:18:14.737Z,1009
2022-12-03T12:19:16.732Z,1009.1
2022-12-03T12:20:18.539Z,1009.1
2022-12-03T12:21:20.854Z,1009
2022-12-03T12:22:22.593Z,1009
2022-12-03T12:23:25.814Z,1009
2022-12-03T12:24:27.953Z,1009
2022-12-03T12:25:30.453Z,1009
2022-12-03T12:26:32.479Z,1008.9
2022-12-03T12:27:34.383Z,1008.9
2022-12-03T12:28:37.164Z,1008.9
2022-12-03T12:29:38.436Z,1008.9
2022-12-03T12:30:40.863Z,1008.9
2022-12-03T12:31:42.645Z,1008.9
2022-12-03T12:32:44.433Z,1008.8
2022-12-03T12:33:46.661Z,1008.8
2022-12-03T12:34:49.037Z,1008.7
2022-12-03T12:35:50.915Z,1008.7
2022-12-03T12:36:52.346Z,1008.6
2022-12-03T12:37:58.447Z,1008.6
2022-12-03T12:38:54.511Z,1008.6
2022-12-03T12:39:57.734Z,1008.7
2022-12-03T12:40:59.713Z,1008.7
2022-12-03T12:42:01.394Z,1008.7
2022-12-03T12:43:10.213Z,1008.7
2022-12-03T12:44:05.416Z,1008.7
2022-12-03T12:45:06.452Z,1008.7
2022-12-03T12:46:25.225Z,1008.7
2022-12-03T12:47:10.646Z,1008.7
2022-12-03T12:48:13.173Z,1008.8
2022-12-03T12:49:15.047Z,1008.7
2022-12-03T12:50:17.412Z,1008.7
2022-12-03T12:51:19.453Z,1008.7
2022-12-03T12:52:21.420Z,1008.6
2022-12-03T12:53:23.593Z,1008.6
2022-12-03T12:54:25.512Z,1008.6
2022-12-03T12:55:27.432Z,1008.6
2022-12-03T12:56:29.413Z,1008.6
2022-12-03T12:57:31.152Z,1008.6
2022-12-03T12:58:33.517Z,1008.6
2022-12-03T12:59:36.534Z,1008.7